createdAt,value
2017-02-18T00:00:03.293Z,0
2017-02-18T00:01:03.274Z,0
2017-02-18T00:02:03.261Z,0
2017-02-18T00:03:03.267Z,0
2017-02-18T00:04:03.233Z,0
2017-02-18T00:05:03.153Z,0
2017-02-18T00:06:03.155Z,0
2017-02-18T00:07:03.135Z,0
2017-02-18T00:08:03.106Z,0
2017-02-18T00:09:03.090Z,0
2017-02-18T00:10:03.045Z,0
2017-02-18T00:11:03.054Z,0
2017-02-18T00:12:02.683Z,0
2017-02-18T00:13:03.057Z,0
2017-02-18T00:14:02.948Z,0
2017-02-18T00:15:02.952Z,0
2017-02-18T00:16:02.890Z,0
2017-02-18T00:17:02.922Z,0
2017-02-18T00:18:02.880Z,0
2017-02-18T00:19:02.859Z,0
2017-02-18T00:20:02.822Z,0
2017-02-18T00:21:02.852Z,0
2017-02-18T00:22:02.782Z,0
2017-02-18T00:23:02.751Z,0
2017-02-18T00:24:02.711Z,0
2017-02-18T00:25:02.697Z,0
2017-02-18T00:26:02.707Z,0
2017-02-18T00:27:02.692Z,0
2017-02-18T00:28:02.652Z,0
2017-02-18T00:29:02.615Z,0
2017-02-18T00:30:02.621Z,0
2017-02-18T00:31:02.555Z,0
2017-02-18T00:32:02.537Z,0
2017-02-18T00:33:02.166Z,0
2017-02-18T00:34:02.499Z,0
2017-02-18T00:35:02.505Z,0
2017-02-18T00:36:02.488Z,0
2017-02-18T00:37:02.485Z,0
2017-02-18T00:38:02.456Z,0
2017-02-18T00:39:02.007Z,0
2017-02-18T00:40:02.462Z,0
2017-02-18T00:41:02.369Z,0
2017-02-18T00:42:02.337Z,0
2017-02-18T00:43:02.287Z,0
2017-02-18T00:44:01.909Z,0
2017-02-18T00:45:02.265Z,0
2017-02-18T00:46:02.253Z,0
2017-02-18T00:47:02.202Z,0
2017-02-18T00:48:02.200Z,0
2017-02-18T00:49:02.171Z,0
2017-02-18T00:50:02.199Z,0
2017-02-18T00:51:02.131Z,0
2017-02-18T00:52:02.099Z,0
2017-02-18T00:53:02.109Z,0
2017-02-18T00:54:02.063Z,0
2017-02-18T00:55:02.027Z,0
2017-02-18T00:56:02.003Z,0
2017-02-18T00:57:01.972Z,0
2017-02-18T00:58:01.978Z,0
2017-02-18T00:59:01.943Z,0
2017-02-18T01:00:01.904Z,0
2017-02-18T01:01:01.893Z,0
2017-02-18T01:02:01.910Z,0
2017-02-18T01:03:01.856Z,0
2017-02-18T01:04:01.853Z,0
2017-02-18T01:05:01.796Z,0
2017-02-18T01:06:01.789Z,0
2017-02-18T01:07:01.756Z,0
2017-02-18T01:08:01.728Z,0
2017-02-18T01:09:01.740Z,0
2017-02-18T01:10:01.681Z,0
2017-02-18T01:11:01.643Z,0
2017-02-18T01:12:01.611Z,0
2017-02-18T01:13:01.645Z,0
2017-02-18T01:14:01.668Z,0
2017-02-18T01:15:01.582Z,0
2017-02-18T01:16:01.546Z,0
2017-02-18T01:17:01.567Z,0
2017-02-18T01:18:01.530Z,0
2017-02-18T01:19:01.453Z,0
2017-02-18T01:20:01.448Z,0
2017-02-18T01:21:01.428Z,0
2017-02-18T01:22:01.438Z,0
2017-02-18T01:23:01.385Z,0
2017-02-18T01:24:01.372Z,0
2017-02-18T01:25:01.352Z,0
2017-02-18T01:26:01.325Z,0
2017-02-18T01:27:01.289Z,0
2017-02-18T01:28:01.272Z,0
2017-02-18T01:29:01.286Z,0
2017-02-18T01:30:01.208Z,0
2017-02-18T01:31:01.212Z,0
2017-02-18T01:32:01.208Z,0
2017-02-18T01:33:01.166Z,0
2017-02-18T01:34:01.145Z,0
2017-02-18T01:35:00.726Z,0
2017-02-18T01:36:01.058Z,0
2017-02-18T01:37:01.064Z,0
2017-02-18T01:38:01.064Z,0
2017-02-18T01:39:01.041Z,0
2017-02-18T01:40:00.991Z,0
2017-02-18T01:41:00.970Z,0
2017-02-18T01:42:00.957Z,0
2017-02-18T01:43:00.971Z,0
2017-02-18T01:44:00.915Z,0
2017-02-18T01:45:00.894Z,0
2017-02-18T01:46:00.867Z,0
2017-02-18T01:47:00.844Z,0
2017-02-18T01:48:00.829Z,0
2017-02-18T01:49:00.839Z,0
2017-02-18T01:50:00.747Z,0
2017-02-18T01:51:00.355Z,0
2017-02-18T01:52:00.730Z,0
2017-02-18T01:53:00.715Z,0
2017-02-18T01:54:00.665Z,0
2017-02-18T01:55:00.663Z,0
2017-02-18T01:56:00.640Z,0
2017-02-18T01:57:00.614Z,0
2017-02-18T01:58:00.579Z,0
2017-02-18T01:59:00.595Z,0
2017-02-18T02:00:00.539Z,0
2017-02-18T02:01:00.549Z,0
2017-02-18T02:02:00.157Z,0
2017-02-18T02:03:00.490Z,0
2017-02-18T02:04:00.439Z,0
2017-02-18T02:05:00.420Z,0
2017-02-18T02:06:00.443Z,0
2017-02-18T02:07:00.418Z,0
2017-02-18T02:08:00.372Z,0
2017-02-18T02:09:00.347Z,0
2017-02-18T02:10:00.342Z,0
2017-02-18T02:11:00.303Z,0
2017-02-18T02:12:00.262Z,0
2017-02-18T02:13:00.258Z,0
2017-02-18T02:14:00.244Z,0
2017-02-18T02:15:00.197Z,0
2017-02-18T02:16:00.195Z,0
2017-02-18T02:16:59.773Z,0
2017-02-18T02:18:00.154Z,0
2017-02-18T02:19:00.136Z,0
2017-02-18T02:19:59.704Z,0
2017-02-18T02:21:00.097Z,0
2017-02-18T02:22:00.057Z,0
2017-02-18T02:23:00.022Z,0
2017-02-18T02:24:00.030Z,0
2017-02-18T02:25:00.003Z,0
2017-02-18T02:25:59.957Z,0
2017-02-18T02:26:59.565Z,0
2017-02-18T02:27:59.768Z,0
2017-02-18T02:28:59.524Z,0
2017-02-18T02:29:59.492Z,0
2017-02-18T02:31:14.366Z,0
2017-02-18T02:32:00.043Z,0
2017-02-18T02:33:00.057Z,0
2017-02-18T02:33:59.827Z,0
2017-02-18T02:34:59.797Z,0
2017-02-18T02:35:59.737Z,0
2017-02-18T02:36:59.727Z,0
2017-02-18T02:37:59.685Z,0
2017-02-18T02:38:59.700Z,0
2017-02-18T02:39:59.647Z,0
2017-02-18T02:40:59.621Z,0
2017-02-18T02:41:59.653Z,0
2017-02-18T02:42:59.591Z,0
2017-02-18T02:43:59.599Z,0
2017-02-18T02:44:59.535Z,0
2017-02-18T02:45:59.550Z,0
2017-02-18T02:46:59.484Z,0
2017-02-18T02:47:59.463Z,0
2017-02-18T02:48:59.455Z,0
2017-02-18T02:49:59.430Z,0
2017-02-18T02:50:59.388Z,0
2017-02-18T02:51:59.437Z,0
2017-02-18T02:52:59.366Z,0
2017-02-18T02:53:59.329Z,0
2017-02-18T02:54:59.293Z,0
2017-02-18T02:55:59.267Z,0
2017-02-18T02:56:59.269Z,0
2017-02-18T02:57:59.234Z,0
2017-02-18T02:58:59.450Z,0
2017-02-18T02:59:59.433Z,0
2017-02-18T03:00:58.786Z,0
2017-02-18T03:01:59.137Z,0
2017-02-18T03:02:59.121Z,0
2017-02-18T03:03:59.159Z,0
2017-02-18T03:04:58.885Z,0
2017-02-18T03:05:59.059Z,0
2017-02-18T03:06:59.048Z,0
2017-02-18T03:07:59.069Z,0
2017-02-18T03:08:59.009Z,0
2017-02-18T03:09:58.989Z,0
2017-02-18T03:10:58.943Z,0
2017-02-18T03:11:58.954Z,0
2017-02-18T03:12:58.934Z,0
2017-02-18T03:13:58.892Z,0
2017-02-18T03:14:58.865Z,0
2017-02-18T03:15:58.831Z,0
2017-02-18T03:16:58.808Z,0
2017-02-18T03:17:58.823Z,0
2017-02-18T03:18:58.756Z,0
2017-02-18T03:19:58.741Z,0
2017-02-18T03:20:58.715Z,0
2017-02-18T03:21:58.709Z,0
2017-02-18T03:22:58.682Z,0
2017-02-18T03:23:58.654Z,0
2017-02-18T03:24:58.648Z,0
2017-02-18T03:25:58.646Z,0
2017-02-18T03:26:58.585Z,0
2017-02-18T03:27:58.162Z,0
2017-02-18T03:28:58.591Z,0
2017-02-18T03:29:58.529Z,0
2017-02-18T03:30:58.502Z,0
2017-02-18T03:31:58.730Z,0
2017-02-18T03:32:58.466Z,0
2017-02-18T03:33:58.446Z,0
2017-02-18T03:34:58.405Z,0
2017-02-18T03:35:58.393Z,0
2017-02-18T03:36:58.630Z,0
2017-02-18T03:37:58.334Z,0
2017-02-18T03:38:58.309Z,0
2017-02-18T03:39:58.304Z,0
2017-02-18T03:40:58.358Z,0
2017-02-18T03:41:58.284Z,0
2017-02-18T03:42:58.215Z,0
2017-02-18T03:43:57.843Z,0
2017-02-18T03:44:58.192Z,0
2017-02-18T03:45:58.175Z,0
2017-02-18T03:46:58.169Z,0
2017-02-18T03:47:57.759Z,0
2017-02-18T03:48:57.704Z,0
2017-02-18T03:49:58.093Z,0
2017-02-18T03:50:58.064Z,0
2017-02-18T03:51:57.621Z,0
2017-02-18T03:52:57.989Z,0
2017-02-18T03:53:57.975Z,0
2017-02-18T03:54:57.979Z,0
2017-02-18T03:55:57.923Z,0
2017-02-18T03:56:57.903Z,0
2017-02-18T03:57:57.882Z,0
2017-02-18T03:58:57.871Z,0
2017-02-18T03:59:57.827Z,0
2017-02-18T04:00:57.805Z,0
2017-02-18T04:01:57.829Z,0
2017-02-18T04:02:57.797Z,0
2017-02-18T04:03:57.767Z,0
2017-02-18T04:04:57.733Z,0
2017-02-18T04:05:57.698Z,0
2017-02-18T04:06:57.679Z,0
2017-02-18T04:07:57.302Z,0
2017-02-18T04:08:57.625Z,0
2017-02-18T04:09:57.814Z,0
2017-02-18T04:10:57.596Z,0
2017-02-18T04:11:57.614Z,0
2017-02-18T04:12:57.568Z,0
2017-02-18T04:13:57.521Z,0
2017-02-18T04:14:57.696Z,0
2017-02-18T04:15:57.473Z,0
2017-02-18T04:16:57.457Z,0
2017-02-18T04:17:57.436Z,0
2017-02-18T04:18:57.425Z,0
2017-02-18T04:19:57.376Z,0
2017-02-18T04:20:57.388Z,0
2017-02-18T04:21:57.323Z,0
2017-02-18T04:22:57.302Z,0
2017-02-18T04:23:57.312Z,0
2017-02-18T04:24:57.235Z,0
2017-02-18T04:25:57.263Z,0
2017-02-18T04:26:57.227Z,0
2017-02-18T04:27:57.211Z,0
2017-02-18T04:28:57.197Z,0
2017-02-18T04:29:57.183Z,0
2017-02-18T04:30:57.128Z,0
2017-02-18T04:31:57.121Z,0
2017-02-18T04:32:56.700Z,0
2017-02-18T04:33:56.662Z,0
2017-02-18T04:34:57.052Z,0
2017-02-18T04:35:57.016Z,0
2017-02-18T04:36:56.964Z,0
2017-02-18T04:37:56.994Z,0
2017-02-18T04:38:56.926Z,0
2017-02-18T04:39:56.890Z,0
2017-02-18T04:40:56.893Z,0
2017-02-18T04:41:57.088Z,0
2017-02-18T04:42:57.070Z,0
2017-02-18T04:43:56.828Z,0
2017-02-18T04:44:56.780Z,0
2017-02-18T04:45:56.791Z,0
2017-02-18T04:46:56.960Z,0
2017-02-18T04:47:56.327Z,0
2017-02-18T04:48:56.697Z,0
2017-02-18T04:49:56.697Z,0
2017-02-18T04:50:56.687Z,0
2017-02-18T04:51:56.624Z,0
2017-02-18T04:52:56.617Z,0
2017-02-18T04:53:56.228Z,0
2017-02-18T04:54:56.586Z,0
2017-02-18T04:55:56.552Z,0
2017-02-18T04:56:56.545Z,0
2017-02-18T04:57:56.123Z,0
2017-02-18T04:58:56.113Z,0
2017-02-18T04:59:56.477Z,0
2017-02-18T05:00:56.061Z,0
2017-02-18T05:01:56.030Z,0
2017-02-18T05:02:55.976Z,0
2017-02-18T05:03:56.348Z,0
2017-02-18T05:04:55.975Z,0
2017-02-18T05:05:55.951Z,0
2017-02-18T05:06:55.952Z,0
2017-02-18T05:07:56.269Z,0
2017-02-18T05:08:55.873Z,0
2017-02-18T05:09:56.050Z,0
2017-02-18T05:10:55.878Z,0
2017-02-18T05:11:56.198Z,0
2017-02-18T05:13:56.164Z,0
2017-02-18T05:14:55.349Z,0
2017-02-18T05:15:56.120Z,0
2017-02-18T05:16:56.058Z,0
2017-02-18T05:17:56.026Z,0
2017-02-18T05:18:56.054Z,0
2017-02-18T05:19:56.035Z,0
2017-02-18T05:20:56.010Z,0
2017-02-18T05:21:55.944Z,0
2017-02-18T05:22:55.562Z,0
2017-02-18T05:23:55.543Z,0
2017-02-18T05:24:55.920Z,0
2017-02-18T05:25:55.458Z,0
2017-02-18T05:26:55.834Z,0
2017-02-18T05:27:55.843Z,0
2017-02-18T05:28:55.808Z,0
2017-02-18T05:29:55.796Z,0
2017-02-18T05:30:55.741Z,0
2017-02-18T05:31:55.720Z,0
2017-02-18T05:32:55.730Z,0
2017-02-18T05:33:55.722Z,0
2017-02-18T05:34:55.674Z,0
2017-02-18T05:35:55.673Z,0
2017-02-18T05:36:55.626Z,0
2017-02-18T05:37:55.611Z,0
2017-02-18T05:38:55.196Z,0
2017-02-18T05:39:55.210Z,0
2017-02-18T05:40:55.515Z,0
2017-02-18T05:41:55.472Z,0
2017-02-18T05:42:55.487Z,0
2017-02-18T05:43:55.488Z,0
2017-02-18T05:44:55.440Z,0
2017-02-18T05:45:55.398Z,0
2017-02-18T05:46:55.356Z,0
2017-02-18T05:47:55.353Z,0
2017-02-18T05:48:55.347Z,0
2017-02-18T05:49:55.352Z,4
2017-02-18T05:50:55.321Z,4
2017-02-18T05:51:55.261Z,0
2017-02-18T05:52:55.243Z,4
2017-02-18T05:53:55.220Z,4
2017-02-18T05:54:55.192Z,8
2017-02-18T05:55:55.166Z,8
2017-02-18T05:56:54.751Z,8
2017-02-18T05:57:55.185Z,8
2017-02-18T05:58:54.751Z,12
2017-02-18T05:59:55.093Z,12
2017-02-18T06:00:54.691Z,16
2017-02-18T06:01:55.024Z,24
2017-02-18T06:02:55.016Z,24
2017-02-18T06:03:54.991Z,28
2017-02-18T06:04:54.972Z,32
2017-02-18T06:05:54.947Z,40
2017-02-18T06:06:54.914Z,48
2017-02-18T06:07:54.923Z,52
2017-02-18T06:08:54.913Z,64
2017-02-18T06:09:54.872Z,72
2017-02-18T06:10:54.821Z,80
2017-02-18T06:11:54.814Z,92
2017-02-18T06:12:54.404Z,100
2017-02-18T06:13:54.778Z,112
2017-02-18T06:14:54.706Z,124
2017-02-18T06:15:54.680Z,136
2017-02-18T06:16:54.688Z,152
2017-02-18T06:17:54.705Z,172
2017-02-18T06:18:54.613Z,188
2017-02-18T06:19:54.615Z,204
2017-02-18T06:20:54.612Z,220
2017-02-18T06:21:54.584Z,236
2017-02-18T06:22:54.194Z,248
2017-02-18T06:23:54.154Z,284
2017-02-18T06:24:54.106Z,320
2017-02-18T06:25:54.472Z,344
2017-02-18T06:26:54.437Z,392
2017-02-18T06:27:54.429Z,424
2017-02-18T06:28:54.401Z,436
2017-02-18T06:29:54.441Z,452
2017-02-18T06:30:54.355Z,464
2017-02-18T06:31:54.354Z,476
2017-02-18T06:32:53.922Z,480
2017-02-18T06:33:53.937Z,496
2017-02-18T06:34:54.281Z,556
2017-02-18T06:35:54.239Z,624
2017-02-18T06:36:54.249Z,680
2017-02-18T06:37:54.230Z,692
2017-02-18T06:38:54.190Z,728
2017-02-18T06:39:54.150Z,796
2017-02-18T06:40:54.144Z,888
2017-02-18T06:41:54.121Z,932
2017-02-18T06:42:54.101Z,884
2017-02-18T06:43:54.059Z,876
2017-02-18T06:44:54.073Z,956
2017-02-18T06:45:54.055Z,1076
2017-02-18T06:46:53.604Z,1456
2017-02-18T06:47:53.989Z,1772
2017-02-18T06:48:53.959Z,1844
2017-02-18T06:49:53.928Z,1824
2017-02-18T06:50:53.934Z,1768
2017-02-18T06:51:53.898Z,1736
2017-02-18T06:52:53.881Z,1624
2017-02-18T06:53:53.903Z,1644
2017-02-18T06:54:53.838Z,1800
2017-02-18T06:55:53.825Z,1896
2017-02-18T06:56:53.788Z,1796
2017-02-18T06:57:53.819Z,1688
2017-02-18T06:58:53.734Z,1556
2017-02-18T06:59:53.717Z,1504
2017-02-18T07:00:53.695Z,1760
2017-02-18T07:01:53.700Z,2180
2017-02-18T07:02:53.277Z,2220
2017-02-18T07:03:53.641Z,2128
2017-02-18T07:04:53.574Z,2004
2017-02-18T07:05:53.242Z,1964
2017-02-18T07:06:53.599Z,2080
2017-02-18T07:07:53.551Z,2056
2017-02-18T07:08:53.530Z,2104
2017-02-18T07:09:53.537Z,2460
2017-02-18T07:10:53.504Z,2356
2017-02-18T07:11:53.448Z,2268
2017-02-18T07:12:53.463Z,2440
2017-02-18T07:13:53.444Z,2912
2017-02-18T07:14:53.379Z,3472
2017-02-18T07:15:53.395Z,3916
2017-02-18T07:16:53.370Z,4160
2017-02-18T07:17:53.340Z,4064
2017-02-18T07:18:53.312Z,3740
2017-02-18T07:19:53.287Z,3220
2017-02-18T07:20:53.253Z,3088
2017-02-18T07:21:53.260Z,3088
2017-02-18T07:22:53.235Z,3148
2017-02-18T07:23:52.823Z,3164
2017-02-18T07:24:53.135Z,2972
2017-02-18T07:25:53.123Z,2976
2017-02-18T07:26:53.123Z,3044
2017-02-18T07:27:53.108Z,2924
2017-02-18T07:28:53.090Z,2944
2017-02-18T07:29:52.630Z,3244
2017-02-18T07:30:53.012Z,3716
2017-02-18T07:31:52.989Z,4116
2017-02-18T07:32:53.009Z,4680
2017-02-18T07:33:52.970Z,5060
2017-02-18T07:34:52.946Z,5324
2017-02-18T07:35:52.922Z,5464
2017-02-18T07:36:52.881Z,5260
2017-02-18T07:37:52.856Z,5836
2017-02-18T07:38:52.860Z,5864
2017-02-18T07:39:52.843Z,5920
2017-02-18T07:40:52.818Z,6308
2017-02-18T07:41:52.797Z,6024
2017-02-18T07:42:52.738Z,6352
2017-02-18T07:43:52.769Z,7476
2017-02-18T07:44:52.760Z,7184
2017-02-18T07:45:52.714Z,6724
2017-02-18T07:46:52.684Z,6932
2017-02-18T07:47:52.642Z,6948
2017-02-18T07:48:52.631Z,7012
2017-02-18T07:49:52.598Z,7388
2017-02-18T07:50:52.605Z,7716
2017-02-18T07:51:52.560Z,7640
2017-02-18T07:52:52.571Z,7676
2017-02-18T07:53:52.562Z,8020
2017-02-18T07:54:52.516Z,9032
2017-02-18T07:55:52.529Z,9564
2017-02-18T07:56:52.461Z,9592
2017-02-18T07:57:52.421Z,9188
2017-02-18T07:58:52.459Z,8388
2017-02-18T07:59:52.411Z,8008
2017-02-18T08:00:52.382Z,7916
2017-02-18T08:01:52.344Z,7836
2017-02-18T08:02:52.332Z,7664
2017-02-18T08:03:52.331Z,7388
2017-02-18T08:04:52.282Z,7624
2017-02-18T08:05:52.238Z,7708
2017-02-18T08:06:52.238Z,8256
2017-02-18T08:07:51.832Z,9452
2017-02-18T08:08:52.242Z,10828
2017-02-18T08:09:52.156Z,12124
2017-02-18T08:10:52.151Z,14436
2017-02-18T08:11:52.138Z,14384
2017-02-18T08:12:52.130Z,13648
2017-02-18T08:13:52.114Z,14116
2017-02-18T08:14:52.075Z,13388
2017-02-18T08:15:52.017Z,12144
2017-02-18T08:16:52.036Z,10960
2017-02-18T08:17:52.012Z,10760
2017-02-18T08:18:51.999Z,10508
2017-02-18T08:19:51.604Z,9548
2017-02-18T08:20:51.944Z,9028
2017-02-18T08:21:51.930Z,8880
2017-02-18T08:22:51.906Z,9104
2017-02-18T08:23:51.875Z,8940
2017-02-18T08:24:51.866Z,8652
2017-02-18T08:25:51.827Z,8664
2017-02-18T08:26:51.805Z,9180
2017-02-18T08:27:51.794Z,9712
2017-02-18T08:28:51.772Z,9904
2017-02-18T08:29:51.762Z,9608
2017-02-18T08:30:51.730Z,10412
2017-02-18T08:31:51.326Z,11020
2017-02-18T08:32:51.675Z,12288
2017-02-18T08:33:51.687Z,14392
2017-02-18T08:34:51.652Z,13848
2017-02-18T08:35:51.622Z,14840
2017-02-18T08:36:51.647Z,20000
2017-02-18T08:37:51.558Z,23552
2017-02-18T08:38:51.574Z,19648
2017-02-18T08:39:51.550Z,18688
2017-02-18T08:40:51.538Z,20160
2017-02-18T08:41:51.478Z,19008
2017-02-18T08:42:51.444Z,18528
2017-02-18T08:43:51.467Z,18624
2017-02-18T08:44:51.454Z,19296
2017-02-18T08:45:51.467Z,20640
2017-02-18T08:46:51.436Z,21696
2017-02-18T08:47:51.411Z,22912
2017-02-18T08:48:51.404Z,21952
2017-02-18T08:49:51.364Z,22528
2017-02-18T08:50:51.330Z,24608
2017-02-18T08:51:51.332Z,21152
2017-02-18T08:52:51.283Z,20992
2017-02-18T08:53:51.282Z,21184
2017-02-18T08:54:51.266Z,21920
2017-02-18T08:55:51.230Z,22912
2017-02-18T08:56:51.251Z,20320
2017-02-18T08:57:51.212Z,21536
2017-02-18T08:58:51.204Z,21696
2017-02-18T08:59:51.201Z,22944
2017-02-18T09:00:51.150Z,12808
2017-02-18T09:01:51.136Z,13656
2017-02-18T09:02:51.127Z,13112
2017-02-18T09:03:51.095Z,12900
2017-02-18T09:04:51.095Z,13340
2017-02-18T09:05:51.089Z,13660
2017-02-18T09:06:51.029Z,14692
2017-02-18T09:07:51.038Z,17792
2017-02-18T09:08:51.034Z,21408
2017-02-18T09:09:50.989Z,22272
2017-02-18T09:10:51.009Z,21504
2017-02-18T09:11:50.980Z,20032
2017-02-18T09:12:50.938Z,21152
2017-02-18T09:13:50.969Z,21536
2017-02-18T09:14:50.531Z,21184
2017-02-18T09:15:50.895Z,21792
2017-02-18T09:16:50.896Z,23104
2017-02-18T09:17:50.896Z,22816
2017-02-18T09:18:50.881Z,23328
2017-02-18T09:19:50.849Z,22528
2017-02-18T09:20:50.826Z,22144
2017-02-18T09:21:50.799Z,21824
2017-02-18T09:22:50.796Z,20800
2017-02-18T09:23:50.757Z,21888
2017-02-18T09:24:50.452Z,22720
2017-02-18T09:25:50.765Z,23360
2017-02-18T09:26:50.354Z,21120
2017-02-18T09:27:50.716Z,19712
2017-02-18T09:28:50.695Z,22016
2017-02-18T09:29:50.274Z,24128
2017-02-18T09:30:50.670Z,22848
2017-02-18T09:31:50.667Z,22304
2017-02-18T09:32:50.627Z,23616
2017-02-18T09:33:50.593Z,25024
2017-02-18T09:34:50.222Z,24768
2017-02-18T09:35:50.213Z,23520
2017-02-18T09:36:50.591Z,23232
2017-02-18T09:37:50.531Z,23328
2017-02-18T09:38:50.541Z,23360
2017-02-18T09:39:50.485Z,25632
2017-02-18T09:40:50.112Z,29088
2017-02-18T09:41:50.500Z,29184
2017-02-18T09:42:50.489Z,29440
2017-02-18T09:43:50.431Z,24000
2017-02-18T09:44:50.436Z,20928
2017-02-18T09:45:50.448Z,17056
2017-02-18T09:46:50.397Z,19776
2017-02-18T09:47:50.365Z,23232
2017-02-18T09:48:50.363Z,20096
2017-02-18T09:49:50.353Z,18080
2017-02-18T09:50:50.364Z,16236
2017-02-18T09:51:50.324Z,21280
2017-02-18T09:52:50.306Z,21344
2017-02-18T09:53:50.281Z,21984
2017-02-18T09:54:50.265Z,22688
2017-02-18T09:55:50.252Z,21344
2017-02-18T09:56:50.259Z,22144
2017-02-18T09:57:49.808Z,21216
2017-02-18T09:58:50.196Z,21184
2017-02-18T09:59:50.191Z,21056
2017-02-18T10:00:50.188Z,23232
2017-02-18T10:01:50.165Z,21920
2017-02-18T10:02:50.188Z,20288
2017-02-18T10:03:50.151Z,18592
2017-02-18T10:04:50.119Z,19552
2017-02-18T10:05:50.082Z,20800
2017-02-18T10:06:50.088Z,20896
2017-02-18T10:07:50.060Z,23360
2017-02-18T10:08:50.128Z,24512
2017-02-18T10:09:50.035Z,23520
2017-02-18T10:10:50.031Z,20128
2017-02-18T10:11:49.983Z,22144
2017-02-18T10:12:49.955Z,21920
2017-02-18T10:13:49.568Z,20672
2017-02-18T10:14:49.575Z,20480
2017-02-18T10:15:49.963Z,19200
2017-02-18T10:16:49.947Z,18496
2017-02-18T10:17:49.533Z,19552
2017-02-18T10:18:49.542Z,20992
2017-02-18T10:19:49.521Z,21440
2017-02-18T10:20:49.882Z,19936
2017-02-18T10:21:49.473Z,26336
2017-02-18T10:22:49.423Z,23744
2017-02-18T10:23:49.441Z,21184
2017-02-18T10:24:49.403Z,22016
2017-02-18T10:25:49.756Z,21024
2017-02-18T10:26:49.362Z,19168
2017-02-18T10:27:49.756Z,27904
2017-02-18T10:28:49.366Z,27232
2017-02-18T10:29:49.325Z,26752
2017-02-18T10:30:49.725Z,25088
2017-02-18T10:31:49.672Z,23072
2017-02-18T10:32:49.635Z,22880
2017-02-18T10:33:49.655Z,21120
2017-02-18T10:34:49.245Z,23264
2017-02-18T10:35:49.642Z,20768
2017-02-18T10:36:49.603Z,19328
2017-02-18T10:37:49.621Z,20960
2017-02-18T10:38:49.618Z,22848
2017-02-18T10:39:49.549Z,24160
2017-02-18T10:40:49.544Z,21024
2017-02-18T10:41:49.562Z,19360
2017-02-18T10:42:49.541Z,17632
2017-02-18T10:43:49.486Z,20352
2017-02-18T10:44:49.063Z,20992
2017-02-18T10:45:49.481Z,20544
2017-02-18T10:46:49.459Z,20992
2017-02-18T10:47:49.446Z,20224
2017-02-18T10:48:49.409Z,20096
2017-02-18T10:49:49.000Z,20096
2017-02-18T10:50:49.408Z,20128
2017-02-18T10:51:49.366Z,20224
2017-02-18T10:52:49.329Z,20352
2017-02-18T10:53:49.349Z,20416
2017-02-18T10:54:49.315Z,20448
2017-02-18T10:55:49.289Z,20384
2017-02-18T10:56:48.914Z,20320
2017-02-18T10:57:49.316Z,20288
2017-02-18T10:58:49.307Z,20288
2017-02-18T10:59:49.266Z,20320
2017-02-18T11:00:49.244Z,20288
2017-02-18T11:01:48.831Z,20320
2017-02-18T11:02:49.224Z,20384
2017-02-18T11:03:49.248Z,20384
2017-02-18T11:04:49.157Z,20416
2017-02-18T11:05:48.754Z,20448
2017-02-18T11:06:49.135Z,20512
2017-02-18T11:07:48.799Z,20480
2017-02-18T11:08:49.155Z,20544
2017-02-18T11:09:49.130Z,20640
2017-02-18T11:10:49.132Z,20672
2017-02-18T11:11:49.115Z,20704
2017-02-18T11:12:49.072Z,20832
2017-02-18T11:13:48.684Z,20832
2017-02-18T11:14:49.052Z,20928
2017-02-18T11:15:49.051Z,20960
2017-02-18T11:16:49.089Z,20992
2017-02-18T11:17:49.014Z,21056
2017-02-18T11:18:48.586Z,21088
2017-02-18T11:19:48.974Z,21152
2017-02-18T11:20:48.570Z,21184
2017-02-18T11:21:48.937Z,21280
2017-02-18T11:22:48.951Z,21344
2017-02-18T11:23:48.952Z,21472
2017-02-18T11:24:48.909Z,21856
2017-02-18T11:25:48.487Z,21856
2017-02-18T11:26:48.877Z,21664
2017-02-18T11:27:48.466Z,21664
2017-02-18T11:28:48.851Z,21696
2017-02-18T11:29:48.855Z,21760
2017-02-18T11:30:48.436Z,21792
2017-02-18T11:31:48.826Z,21888
2017-02-18T11:32:48.784Z,22048
2017-02-18T11:33:48.381Z,22144
2017-02-18T11:34:48.770Z,22688
2017-02-18T11:35:48.741Z,22720
2017-02-18T11:36:48.716Z,23776
2017-02-18T11:37:48.737Z,23488
2017-02-18T11:38:48.728Z,25056
2017-02-18T11:39:48.715Z,23392
2017-02-18T11:40:48.690Z,24256
2017-02-18T11:41:48.684Z,23072
2017-02-18T11:42:48.281Z,23808
2017-02-18T11:43:48.636Z,23744
2017-02-18T11:44:48.646Z,24608
2017-02-18T11:45:48.618Z,23520
2017-02-18T11:46:48.610Z,24416
2017-02-18T11:47:48.555Z,24128
2017-02-18T11:48:48.591Z,24000
2017-02-18T11:49:48.569Z,24704
2017-02-18T11:50:48.584Z,24096
2017-02-18T11:51:48.560Z,24192
2017-02-18T11:52:48.542Z,24160
2017-02-18T11:53:48.502Z,24320
2017-02-18T11:54:48.493Z,24096
2017-02-18T11:55:48.472Z,24160
2017-02-18T11:56:48.469Z,24192
2017-02-18T11:57:54.020Z,24352
2017-02-18T11:58:48.483Z,24416
2017-02-18T11:59:48.051Z,24544
2017-02-18T12:00:48.431Z,24672
2017-02-18T12:01:48.457Z,24800
2017-02-18T12:02:48.011Z,24736
2017-02-18T12:03:48.395Z,24736
2017-02-18T12:04:48.373Z,24864
2017-02-18T12:05:48.389Z,24960
2017-02-18T12:06:48.356Z,25248
2017-02-18T12:07:48.309Z,25376
2017-02-18T12:08:48.327Z,25184
2017-02-18T12:09:48.280Z,25120
2017-02-18T12:10:48.303Z,25280
2017-02-18T12:11:48.292Z,25408
2017-02-18T12:12:48.252Z,25568
2017-02-18T12:13:48.274Z,25696
2017-02-18T12:14:48.202Z,25888
2017-02-18T12:15:48.195Z,26112
2017-02-18T12:16:48.223Z,26368
2017-02-18T12:17:48.241Z,26592
2017-02-18T12:18:48.181Z,26848
2017-02-18T12:19:48.151Z,26880
2017-02-18T12:20:47.778Z,26816
2017-02-18T12:21:47.770Z,26784
2017-02-18T12:22:48.121Z,27008
2017-02-18T12:23:48.133Z,27104
2017-02-18T12:24:47.706Z,27136
2017-02-18T12:25:48.090Z,27200
2017-02-18T12:26:48.064Z,27328
2017-02-18T12:27:48.055Z,27488
2017-02-18T12:28:48.044Z,27520
2017-02-18T12:29:47.631Z,27584
2017-02-18T12:30:48.031Z,27712
2017-02-18T12:31:47.645Z,27712
2017-02-18T12:32:47.629Z,27712
2017-02-18T12:33:47.954Z,27648
2017-02-18T12:34:47.586Z,27648
2017-02-18T12:35:47.964Z,27648
2017-02-18T12:36:47.964Z,27648
2017-02-18T12:37:47.933Z,27616
2017-02-18T12:38:47.910Z,27680
2017-02-18T12:39:47.893Z,27616
2017-02-18T12:40:47.912Z,27648
2017-02-18T12:41:47.857Z,27776
2017-02-18T12:42:47.850Z,27776
2017-02-18T12:43:47.851Z,27776
2017-02-18T12:44:47.854Z,27840
2017-02-18T12:45:47.809Z,27808
2017-02-18T12:46:47.850Z,27840
2017-02-18T12:47:47.801Z,27808
2017-02-18T12:48:47.745Z,27840
2017-02-18T12:49:47.383Z,27840
2017-02-18T12:50:47.768Z,27936
2017-02-18T12:51:47.763Z,27808
2017-02-18T12:52:47.715Z,27968
2017-02-18T12:53:47.711Z,27968
2017-02-18T12:54:47.695Z,27936
2017-02-18T12:55:47.673Z,27936
2017-02-18T12:56:47.678Z,27936
2017-02-18T12:57:47.683Z,27872
2017-02-18T12:58:47.639Z,28032
2017-02-18T12:59:47.236Z,28032
2017-02-18T13:00:47.642Z,28000
2017-02-18T13:01:47.609Z,27872
2017-02-18T13:02:47.571Z,27968
2017-02-18T13:03:47.565Z,28000
2017-02-18T13:04:47.559Z,27968
2017-02-18T13:05:47.512Z,27968
2017-02-18T13:06:47.546Z,27936
2017-02-18T13:07:47.527Z,27968
2017-02-18T13:08:47.520Z,27936
2017-02-18T13:09:47.106Z,28000
2017-02-18T13:10:47.467Z,27936
2017-02-18T13:11:47.438Z,27936
2017-02-18T13:12:47.447Z,27904
2017-02-18T13:13:47.048Z,27872
2017-02-18T13:14:47.510Z,27872
2017-02-18T13:15:47.432Z,27808
2017-02-18T13:16:47.382Z,27840
2017-02-18T13:17:47.377Z,27840
2017-02-18T13:18:47.374Z,27648
2017-02-18T13:19:47.344Z,27936
2017-02-18T13:20:47.417Z,27808
2017-02-18T13:21:47.410Z,27808
2017-02-18T13:22:47.307Z,28032
2017-02-18T13:23:47.316Z,27840
2017-02-18T13:24:47.281Z,27840
2017-02-18T13:25:47.257Z,27872
2017-02-18T13:26:47.283Z,27808
2017-02-18T13:27:47.213Z,27744
2017-02-18T13:28:47.236Z,27744
2017-02-18T13:29:47.220Z,27744
2017-02-18T13:30:47.207Z,27616
2017-02-18T13:31:47.181Z,27552
2017-02-18T13:32:47.186Z,27552
2017-02-18T13:33:47.171Z,27552
2017-02-18T13:34:47.125Z,27488
2017-02-18T13:35:47.165Z,27296
2017-02-18T13:36:47.124Z,27168
2017-02-18T13:37:47.145Z,27328
2017-02-18T13:38:47.142Z,27296
2017-02-18T13:39:47.130Z,27264
2017-02-18T13:40:47.087Z,27200
2017-02-18T13:41:47.070Z,27168
2017-02-18T13:42:47.067Z,27072
2017-02-18T13:43:47.048Z,27072
2017-02-18T13:44:46.633Z,27040
2017-02-18T13:45:47.003Z,26944